Albion, Rhode Island
Current Conditions -  °F | °C
As of 7:55 PM on Wednesday 17 Dec 2014 (Local Time) from KSFZ Reporting Station
Scattered Clouds Scattered Clouds  
Wind Chill: 37°   Ceiling: Unl
Heat Index: 43°   Visibility: 10mi
Dew Point: 30°   Wind: 12mph
Humidity: 61%   Direction: 270°W
Pressure: 29.74"   Gusts: 17mph
Location:  41.95°N, 71.45°W
Report Text: KSFZ 180055Z 27010G15KT 10SM FEW070 SCT110 06/M01 A2974 RMK AO1
Loading
Personal Weather Stations






























Interactive Weather Map New forecast layout! Learn more

10-Day Weather Forecast

Advertisements
Track Severe Weather on mobile